• Join FlightAware (Why Join?)
  • Login
  • US Flag 
Rudolph Flight #1: Arrived! 
08:48PM EST


 

Airport Tracker/Info


-or-


 

Live Flight TrackerFlight Track Log ✈ N587DG ✈ 23-Sep-2013 ✈ KGVL - KCPS

Flight Track Log - Related Links

Times and Time Zones

All times are in EDT time to prevent confusion due to time zone crossing. See the N587DG flight status page for this flight to view local times or setup timezone preferences in your user account.

Time Position Orientation Groundspeed Altitude Reporting Facility
EDT Latitude Longitude Course Direction KTS MPH feet Rate Location/Type
08:05AM 34.3494 -83.8903 310° West 166 191 2,800  Level Atlanta Center
08:06AM 34.3722 -83.9231 310° West 166 191 3,900 960 Climbing Atlanta Center
08:07AM 34.3994 -83.9583 313° West 149 171 4,800 900 Climbing Atlanta Center
08:08AM 34.4267 -83.9961 311° West 144 166 5,700 780 Climbing Atlanta Center
08:09AM 34.4539 -84.0311 313° West 139 160 6,400 660 Climbing Atlanta Center
08:10AM 34.4767 -84.0664 308° West 139 160 7,100 600 Climbing Atlanta Center
08:11AM 34.5039 -84.0992 315° West 139 160 7,700 420 Climbing Atlanta Center
08:12AM 34.5267 -84.1294 312° West 133 153 8,000 120 Climbing Atlanta Center
08:13AM 34.5539 -84.1675 311° West 141 162 8,000  Level Atlanta Center
08:14AM 34.5831 -84.2053 313° West 146 168 8,000  Level Atlanta Center
08:15AM 34.6100 -84.2458 309° West 152 175 8,000  Level Atlanta Center
08:16AM 34.6414 -84.2836 315° West 152 175 8,000  Level Atlanta Center
08:17AM 34.6683 -84.3217 311° West 158 182 8,000  Level Atlanta Center
08:18AM 34.6956 -84.3597 311° West 158 182 8,000  Level Atlanta Center
08:19AM 34.7244 -84.3978 313° West 158 182 8,000  Level Atlanta Center
08:20AM 34.7536 -84.4483 305° West 158 182 8,000  Level Atlanta Center
08:21AM 34.7828 -84.4764 322° Northwest 152 175 8,000  Level Atlanta Center
08:22AM 34.8097 -84.5169 309° West 152 175 8,000  Level Atlanta Center
08:23AM 34.8389 -84.5575 311° West 158 182 8,000  Level Atlanta Center
08:24AM 34.8636 -84.5983 306° West 158 182 8,000  Level Atlanta Center
08:25AM 34.8906 -84.6339 313° West 158 182 8,000  Level Atlanta Center
08:26AM 34.9197 -84.6719 313° West 158 182 8,000  Level Atlanta Center
08:27AM 34.9467 -84.7103 311° West 158 182 8,000  Level Atlanta Center
08:29AM 34.9958 -84.7891 307° West  Level FlightAware Approximate
08:36AM 35.1815 -85.0884 307° West  Level FlightAware Approximate
08:37AM 35.2079 -85.1312 307° West  Level FlightAware Approximate
08:38AM 35.2344 -85.1741 307° West  Level FlightAware Approximate
08:39AM 35.2608 -85.2170 307° West  Level FlightAware Approximate
08:40AM 35.2872 -85.2600 307° West  Level FlightAware Approximate
08:40AM 35.3272 -85.2392 309° West 156 180 8,000  Level Memphis Center
08:41AM 35.3136 -85.3029 307° West  Level FlightAware Approximate
08:41AM 35.3539 -85.2783 310° West 161 185 8,000  Level Memphis Center
08:42AM 35.3400 -85.3459 307° West  Level FlightAware Approximate
08:42AM 35.3825 -85.3175 312° West 156 180 8,000  Level Memphis Center
08:43AM 35.3664 -85.3890 307° West  Level FlightAware Approximate
08:43AM 35.4114 -85.3564 312° West 156 180 8,000  Level Memphis Center
08:44AM 35.3934 -85.4318 309° West  Level FlightAware Approximate
08:44AM 35.4381 -85.3981 308° West 156 180 8,000  Level Memphis Center
08:45AM 35.4212 -85.4734 309° West  Level FlightAware Approximate
08:45AM 35.4667 -85.4372 312° West 156 180 8,000  Level Memphis Center
08:46AM 35.4490 -85.5151 309° West  Level FlightAware Approximate
08:46AM 35.4933 -85.4789 308° West 156 180 8,000  Level Memphis Center
08:47AM 35.5242 -85.5181 314° West 156 180 8,000  Level Memphis Center
08:48AM 35.5508 -85.5597 308° West 156 180 8,000  Level Memphis Center
08:49AM 35.5814 -85.5989 314° West 156 180 8,000  Level Memphis Center
08:50AM 35.6081 -85.6408 308° West 156 180 8,000  Level Memphis Center
08:51AM 35.6367 -85.6800 312° West 156 180 8,000  Level Memphis Center
08:52AM 35.6653 -85.7217 310° West 156 180 8,000  Level Memphis Center
08:53AM 35.6919 -85.7636 308° West 156 180 8,000  Level Memphis Center
08:54AM 35.7225 -85.8028 314° West 156 180 8,000  Level Memphis Center
08:55AM 35.7492 -85.8450 308° West 156 180 8,000  Level Memphis Center
08:56AM 35.7861 -85.8889 316° Northwest 156 180 8,000  Level Memphis Center
08:57AM 35.8147 -85.9308 310° West 161 185 8,000  Level Memphis Center
08:58AM 35.8411 -85.9706 309° West 161 185 8,000  Level Memphis Center
08:59AM 35.8697 -86.0100 312° West 161 185 8,000  Level Memphis Center
09:00AM 35.8981 -86.0494 312° West 161 185 8,000  Level Memphis Center
09:01AM 35.9267 -86.0917 310° West 161 185 8,000  Level Memphis Center
09:02AM 35.9531 -86.1311 310° West 161 185 8,000  Level Memphis Center
09:03AM 35.9817 -86.1708 312° West 161 185 8,000  Level Memphis Center
09:04AM 36.0058 -86.2106 307° West 161 185 8,000  Level Memphis Center
09:05AM 36.0322 -86.2503 309° West 161 185 8,000  Level Memphis Center
09:06AM 36.0606 -86.2900 311° West 156 180 8,000  Level Memphis Center
09:07AM 36.0889 -86.3297 311° West 156 180 8,000  Level Memphis Center
09:08AM 36.1175 -86.3719 310° West 156 180 8,000  Level Memphis Center
09:10AM 36.1500 -86.4833 290° West 157 181 8,000  Level Nashville TRACON
09:11AM 36.1500 -86.5167 270° West 157 181 8,000  Level Nashville TRACON
09:12AM 36.1667 -86.5833 287° West 158 182 8,000  Level Nashville TRACON
09:14AM 36.2000 -86.6333 310° West 155 178 8,000  Level Nashville TRACON
09:15AM 36.2333 -86.6667 321° Northwest 156 180 8,000  Level Nashville TRACON
09:15AM 36.2500 -86.7000 302° West 156 180 8,000  Level Nashville TRACON
09:16AM 36.2833 -86.7333 321° Northwest 156 180 8,000  Level Nashville TRACON
09:17AM 36.2942 -86.7675 291° West 156 180 8,000  Level Memphis Center
09:18AM 36.3247 -86.8125 310° West 156 180 8,000  Level Memphis Center
09:19AM 36.3572 -86.8550 314° West 156 180 8,000  Level Memphis Center
09:20AM 36.3833 -86.8950 309° West 156 180 8,000  Level Memphis Center
09:21AM 36.4136 -86.9350 313° West 155 178 8,000  Level Memphis Center
09:22AM 36.4439 -86.9803 310° West 155 178 8,000  Level Memphis Center
09:23AM 36.4722 -87.0203 311° West 156 180 8,000  Level Memphis Center
09:24AM 36.5003 -87.0603 311° West 156 180 8,000  Level Memphis Center
09:25AM 36.5283 -87.0981 313° West 156 180 8,000  Level Memphis Center
09:26AM 36.5589 -87.1433 310° West 156 180 8,000  Level Memphis Center
09:27AM 36.5869 -87.1808 313° West 157 181 8,000  Level Memphis Center
09:28AM 36.6150 -87.2264 308° West 157 181 8,000  Level Memphis Center
09:29AM 36.6431 -87.2642 313° West 157 181 8,000  Level Memphis Center
09:30AM 36.6736 -87.3094 310° West 156 180 8,000  Level Memphis Center
09:31AM 36.7017 -87.3497 311° West 157 181 8,000  Level Memphis Center
09:32AM 36.7317 -87.3875 315° West 159 183 8,000  Level Memphis Center
09:33AM 36.7597 -87.4331 308° West 159 183 8,000  Level Memphis Center
09:34AM 36.7919 -87.4758 313° West 158 182 8,000  Level Memphis Center
09:35AM 36.8161 -87.5192 305° West 159 183 8,000  Level Memphis Center
09:36AM 36.8481 -87.5594 315° West 159 183 8,000  Level Memphis Center
09:37AM 36.8761 -87.5975 313° West 159 183 8,000  Level Memphis Center
09:38AM 36.9064 -87.6456 308° West 159 183 8,000  Level Memphis Center
09:39AM 36.9364 -87.6914 309° West 161 185 8,000  Level Memphis Center
09:40AM 36.9667 -87.7319 313° West 161 185 8,000  Level Memphis Center
09:41AM 36.9967 -87.7750 311° West 160 184 8,000  Level Memphis Center
09:42AM 37.0225 -87.8183 307° West 159 183 8,000  Level Memphis Center
09:44AM 37.0547 -87.8642 311° West 161 185 8,000  Level Memphis Center
09:44AM 37.0761 -87.8972 309° West 167 192 8,000  Level Memphis Center
09:45AM 37.1061 -87.9381 313° West 167 192 8,000  Level Memphis Center
09:46AM 37.1342 -87.9814 309° West 167 192 8,000  Level Memphis Center
09:47AM 37.1619 -88.0222 310° West 167 192 8,000  Level Memphis Center
09:48AM 37.1919 -88.0656 311° West 162 186 8,000  Level Memphis Center
09:49AM 37.2239 -88.1089 313° West 162 186 8,000  Level Memphis Center
09:50AM 37.2539 -88.1522 311° West 169 194 8,000  Level Memphis Center
09:51AM 37.2839 -88.1958 311° West 164 189 8,000  Level Memphis Center
09:52AM 37.3094 -88.2369 308° West 164 189 8,000  Level Memphis Center
09:53AM 37.3394 -88.2803 311° West 156 180 8,000  Level Memphis Center
09:54AM 37.3694 -88.3239 311° West 163 188 8,000  Level Memphis Center
09:55AM 37.3950 -88.3625 310° West 163 188 8,000  Level Memphis Center
09:56AM 37.4269 -88.4061 313° West 158 182 8,000  Level Memphis Center
09:57AM 37.4547 -88.4472 310° West 158 182 8,000  Level Memphis Center
09:58AM 37.4825 -88.4936 307° West 164 189 8,000  Level Memphis Center
09:59AM 37.5122 -88.5347 312° West 155 178 8,000  Level Memphis Center
10:02AM 37.5803 -88.6350 311° West 161 185 8,000  Level Kansas City Center
10:03AM 37.6072 -88.6769 309° West 157 181 8,000  Level Kansas City Center
10:04AM 37.6372 -88.7214 310° West 161 185 8,000  Level Kansas City Center
10:05AM 37.6694 -88.7728 308° West 162 186 8,000  Level Kansas City Center
10:06AM 37.6983 -88.8147 311° West 160 184 8,000  Level Kansas City Center
10:07AM 37.7269 -88.8558 311° West 157 181 8,000  Level Kansas City Center
10:08AM 37.7556 -88.9003 309° West 159 183 8,000  Level Kansas City Center
10:09AM 37.7831 -88.9428 309° West 157 181 8,000  Level Kansas City Center
10:10AM 37.8114 -88.9847 311° West 157 181 8,000  Level Kansas City Center
10:11AM 37.8414 -89.0267 312° West 157 181 8,000  Level Kansas City Center
10:12AM 37.8728 -89.0811 306° West 158 182 8,000  Level Kansas City Center
10:13AM 37.9008 -89.1247 309° West 159 183 8,000  Level Kansas City Center
10:14AM 37.9294 -89.1664 311° West 158 182 8,000  Level Kansas City Center
10:15AM 37.9600 -89.2125 310° West 159 183 8,000  Level Kansas City Center
10:16AM 37.9878 -89.2556 309° West 158 182 8,000  Level Kansas City Center
10:17AM 38.0183 -89.3019 310° West 159 183 8,000  Level Kansas City Center
10:18AM 38.0472 -89.3450 310° West 159 183 8,000 -120 Level Kansas City Center
10:19AM 38.0781 -89.3919 310° West 160 184 7,800 -360 Descending Kansas City Center
10:20AM 38.1064 -89.4342 310° West 165 190 7,300 -420 Descending Kansas City Center
10:21AM 38.1353 -89.4786 310° West 164 189 7,000 -180 Descending Kansas City Center
10:22AM 38.1614 -89.5197 309° West 150 173 7,000  Level Kansas City Center
10:23AM 38.1867 -89.5592 309° West 146 168 7,000  Level Kansas City Center
10:25AM 38.2122 -89.5986 310° West 145 167 7,000 -120 Level Kansas City Center
10:26AM 38.2428 -89.6444 310° West 142 163 6,800 -360 Descending Kansas City Center
10:27AM 38.2692 -89.6850 310° West 147 169 6,300 -480 Descending Kansas City Center
10:28AM 38.2967 -89.7253 311° West 150 173 5,800 -540 Descending Kansas City Center
10:29AM 38.3117 -89.7742 291° West 155 178 5,300 -540 Descending Kansas City Center
10:30AM 38.3222 -89.8261 285° West 155 178 4,800 -480 Descending Kansas City Center
10:31AM 38.3342 -89.8781 286° West 154 177 4,300 -420 Descending Kansas City Center
10:32AM 38.3472 -89.9431 284° West 156 180 4,000 -180 Descending Kansas City Center
10:33AM 38.3583 -89.9950 285° West 155 178 4,000  Level Kansas City Center
10:34AM 38.3683 -90.0450 284° West 151 174 4,000  Level Kansas City Center
10:35AM 38.3789 -90.0958 285° West 149 171 4,000  Level Kansas City Center
10:36AM 38.3892 -90.1469 284° West 149 171 4,000  Level Kansas City Center
10:37AM 38.3994 -90.1978 284° West 148 170 4,000  Level Kansas City Center
10:38AM 38.4103 -90.2492 285° West 149 171 4,000  Level Kansas City Center
10:39AM 38.4222 -90.3100 284° West 149 171 4,000  Level Kansas City Center
10:40AM 38.4331 -90.3558 287° West 142 163 4,000 -60 Level Kansas City Center
10:41AM 38.4656 -90.3661 346° North 127 146 3,900 -300 Descending Kansas City Center
10:42AM 38.4992 -90.3758 347° North 125 144 3,500 -480 Descending Kansas City Center
10:43AM 38.5281 -90.4000 327° Northwest 135 155 3,000 -480 Descending Kansas City Center
10:44AM 38.5414 -90.4431 292° West 148 170 2,600 -240 Descending Kansas City Center
10:45AM 38.5606 -90.4147 49° Northeast 129 148 2,600  Level Kansas City Center
10:46AM 38.5744 -90.3708 68° East 116 133 2,600  Level Kansas City Center
10:47AM 38.5856 -90.3356 68° East 111 128 2,600  Level Kansas City Center
10:48AM 38.5964 -90.3014 68° East 108 124 2,600 -240 Level Kansas City Center
10:49AM 38.6003 -90.2675 82° East 101 116 2,200 -420 Descending Kansas City Center
10:50AM 38.5992 -90.2325 92° East 98 113 1,800 -540 Descending Kansas City Center
10:51AM 38.5922 -90.1986 105° East 98 113 1,200 -660 Descending Kansas City Center
10:52AM 38.5775 -90.1661 120° Southeast 91 105 500 -720 Descending Kansas City Center